sensor_id;sensor_type;location;lat;lon;timestamp;pressure;altitude;pressure_sealevel;temperature
71649;BMP180;59492;45.638;11.714;2022-07-23T00:00:09;100975.40;;;30.68
71649;BMP180;59492;45.638;11.714;2022-07-23T00:02:35;100972.00;;;30.60
71649;BMP180;59492;45.638;11.714;2022-07-23T00:05:00;100966.60;;;30.60
71649;BMP180;59492;45.638;11.714;2022-07-23T00:07:26;100960.00;;;30.58
71649;BMP180;59492;45.638;11.714;2022-07-23T00:09:52;100960.80;;;30.50
71649;BMP180;59492;45.638;11.714;2022-07-23T00:12:18;100953.80;;;30.50
71649;BMP180;59492;45.638;11.714;2022-07-23T00:14:43;100954.00;;;30.48
71649;BMP180;59492;45.638;11.714;2022-07-23T00:17:09;100958.20;;;30.40
71649;BMP180;59492;45.638;11.714;2022-07-23T00:19:35;100952.40;;;30.40
71649;BMP180;59492;45.638;11.714;2022-07-23T00:22:00;100951.00;;;30.36
71649;BMP180;59492;45.638;11.714;2022-07-23T00:24:26;100943.20;;;30.30
71649;BMP180;59492;45.638;11.714;2022-07-23T00:26:51;100946.40;;;30.30
71649;BMP180;59492;45.638;11.714;2022-07-23T00:29:17;100937.00;;;30.28
71649;BMP180;59492;45.638;11.714;2022-07-23T00:31:43;100931.80;;;30.20
71649;BMP180;59492;45.638;11.714;2022-07-23T00:34:08;100925.20;;;30.20
71649;BMP180;59492;45.638;11.714;2022-07-23T00:36:34;100924.80;;;30.16
71649;BMP180;59492;45.638;11.714;2022-07-23T00:38:59;100927.80;;;30.10
71649;BMP180;59492;45.638;11.714;2022-07-23T00:41:25;100930.00;;;30.10
71649;BMP180;59492;45.638;11.714;2022-07-23T00:43:51;100928.80;;;30.10
71649;BMP180;59492;45.638;11.714;2022-07-23T00:46:20;100931.40;;;30.06
71649;BMP180;59492;45.638;11.714;2022-07-23T00:48:46;100928.00;;;30.00
71649;BMP180;59492;45.638;11.714;2022-07-23T00:51:12;100927.20;;;30.00
71649;BMP180;59492;45.638;11.714;2022-07-23T00:53:37;100926.40;;;29.94
71649;BMP180;59492;45.638;11.714;2022-07-23T00:56:03;100921.60;;;29.92
71649;BMP180;59492;45.638;11.714;2022-07-23T00:58:30;100921.60;;;29.90
71649;BMP180;59492;45.638;11.714;2022-07-23T01:00:56;100924.00;;;29.90
71649;BMP180;59492;45.638;11.714;2022-07-23T01:03:21;100924.60;;;29.88
71649;BMP180;59492;45.638;11.714;2022-07-23T01:05:47;100930.80;;;29.82
71649;BMP180;59492;45.638;11.714;2022-07-23T01:08:13;100931.20;;;29.80
71649;BMP180;59492;45.638;11.714;2022-07-23T01:10:40;100932.60;;;29.80
71649;BMP180;59492;45.638;11.714;2022-07-23T01:13:08;100935.40;;;29.76
71649;BMP180;59492;45.638;11.714;2022-07-23T01:15:36;100934.80;;;29.70
71649;BMP180;59492;45.638;11.714;2022-07-23T01:18:03;100927.40;;;29.70
71649;BMP180;59492;45.638;11.714;2022-07-23T01:20:31;100925.80;;;29.70
71649;BMP180;59492;45.638;11.714;2022-07-23T01:22:57;100930.00;;;29.68
71649;BMP180;59492;45.638;11.714;2022-07-23T01:25:23;100930.00;;;29.64
71649;BMP180;59492;45.638;11.714;2022-07-23T01:27:51;100926.40;;;29.60
71649;BMP180;59492;45.638;11.714;2022-07-23T01:30:17;100918.60;;;29.60
71649;BMP180;59492;45.638;11.714;2022-07-23T01:32:43;100914.20;;;29.60
71649;BMP180;59492;45.638;11.714;2022-07-23T01:35:10;100910.40;;;29.56
71649;BMP180;59492;45.638;11.714;2022-07-23T01:37:36;100910.00;;;29.52
71649;BMP180;59492;45.638;11.714;2022-07-23T01:40:02;100906.40;;;29.50
71649;BMP180;59492;45.638;11.714;2022-07-23T01:42:28;100905.20;;;29.50
71649;BMP180;59492;45.638;11.714;2022-07-23T01:44:54;100896.40;;;29.50
71649;BMP180;59492;45.638;11.714;2022-07-23T01:47:19;100895.40;;;29.46
71649;BMP180;59492;45.638;11.714;2022-07-23T01:49:45;100893.00;;;29.42
71649;BMP180;59492;45.638;11.714;2022-07-23T01:52:11;100899.20;;;29.40
71649;BMP180;59492;45.638;11.714;2022-07-23T01:54:38;100898.60;;;29.40
71649;BMP180;59492;45.638;11.714;2022-07-23T01:57:05;100905.80;;;29.40
71649;BMP180;59492;45.638;11.714;2022-07-23T01:59:31;100912.00;;;29.38
71649;BMP180;59492;45.638;11.714;2022-07-23T02:01:57;100916.60;;;29.36
71649;BMP180;59492;45.638;11.714;2022-07-23T02:04:24;100916.80;;;29.30
71649;BMP180;59492;45.638;11.714;2022-07-23T02:06:51;100923.40;;;29.30
71649;BMP180;59492;45.638;11.714;2022-07-23T02:09:17;100926.80;;;29.30
71649;BMP180;59492;45.638;11.714;2022-07-23T02:11:43;100929.20;;;29.30
71649;BMP180;59492;45.638;11.714;2022-07-23T02:14:09;100941.20;;;29.30
71649;BMP180;59492;45.638;11.714;2022-07-23T02:16:34;100948.40;;;29.28
71649;BMP180;59492;45.638;11.714;2022-07-23T02:19:00;100951.80;;;29.24
71649;BMP180;59492;45.638;11.714;2022-07-23T02:21:26;100960.20;;;29.22
71649;BMP180;59492;45.638;11.714;2022-07-23T02:23:51;100961.80;;;29.20
71649;BMP180;59492;45.638;11.714;2022-07-23T02:26:17;100968.00;;;29.20
71649;BMP180;59492;45.638;11.714;2022-07-23T02:28:43;100970.80;;;29.20
71649;BMP180;59492;45.638;11.714;2022-07-23T02:31:08;100976.00;;;29.20
71649;BMP180;59492;45.638;11.714;2022-07-23T02:33:34;100978.60;;;29.18
71649;BMP180;59492;45.638;11.714;2022-07-23T02:36:00;100982.60;;;29.16
71649;BMP180;59492;45.638;11.714;2022-07-23T02:38:26;100980.40;;;29.16
71649;BMP180;59492;45.638;11.714;2022-07-23T02:40:52;100976.60;;;29.10
71649;BMP180;59492;45.638;11.714;2022-07-23T02:43:17;100978.00;;;29.10
71649;BMP180;59492;45.638;11.714;2022-07-23T02:45:43;100977.00;;;29.10
71649;BMP180;59492;45.638;11.714;2022-07-23T02:48:09;100982.40;;;29.10
71649;BMP180;59492;45.638;11.714;2022-07-23T02:50:38;100979.60;;;29.10
71649;BMP180;59492;45.638;11.714;2022-07-23T02:53:03;100976.20;;;29.10
71649;BMP180;59492;45.638;11.714;2022-07-23T02:55:29;100973.80;;;29.10
71649;BMP180;59492;45.638;11.714;2022-07-23T02:57:56;100969.80;;;29.06
71649;BMP180;59492;45.638;11.714;2022-07-23T03:00:22;100965.40;;;29.04
71649;BMP180;59492;45.638;11.714;2022-07-23T03:02:47;100969.80;;;29.00
71649;BMP180;59492;45.638;11.714;2022-07-23T03:05:13;100969.20;;;29.00
71649;BMP180;59492;45.638;11.714;2022-07-23T03:07:38;100964.20;;;29.00
71649;BMP180;59492;45.638;11.714;2022-07-23T03:10:04;100962.40;;;29.00
71649;BMP180;59492;45.638;11.714;2022-07-23T03:12:30;100964.60;;;29.00
71649;BMP180;59492;45.638;11.714;2022-07-23T03:14:56;100966.00;;;29.00
71649;BMP180;59492;45.638;11.714;2022-07-23T03:17:21;100963.80;;;29.00
71649;BMP180;59492;45.638;11.714;2022-07-23T03:19:47;100960.60;;;28.98
71649;BMP180;59492;45.638;11.714;2022-07-23T03:22:12;100958.20;;;28.94
71649;BMP180;59492;45.638;11.714;2022-07-23T03:24:38;100955.60;;;28.94
71649;BMP180;59492;45.638;11.714;2022-07-23T03:27:19;100955.20;;;28.90
71649;BMP180;59492;45.638;11.714;2022-07-23T03:29:45;100953.60;;;28.90
71649;BMP180;59492;45.638;11.714;2022-07-23T03:32:11;100956.60;;;28.90
71649;BMP180;59492;45.638;11.714;2022-07-23T03:34:37;100962.80;;;28.90
71649;BMP180;59492;45.638;11.714;2022-07-23T03:37:03;100963.40;;;28.90
71649;BMP180;59492;45.638;11.714;2022-07-23T03:39:29;100965.60;;;28.90
71649;BMP180;59492;45.638;11.714;2022-07-23T03:41:55;100970.20;;;28.90
71649;BMP180;59492;45.638;11.714;2022-07-23T03:44:21;100978.80;;;28.88
71649;BMP180;59492;45.638;11.714;2022-07-23T03:46:46;100978.20;;;28.88
71649;BMP180;59492;45.638;11.714;2022-07-23T03:49:12;100974.00;;;28.88
71649;BMP180;59492;45.638;11.714;2022-07-23T03:51:38;100973.60;;;28.84
71649;BMP180;59492;45.638;11.714;2022-07-23T03:54:03;100976.60;;;28.82
71649;BMP180;59492;45.638;11.714;2022-07-23T03:56:29;100973.60;;;28.80
71649;BMP180;59492;45.638;11.714;2022-07-23T03:58:55;100972.60;;;28.80
71649;BMP180;59492;45.638;11.714;2022-07-23T04:01:20;100974.00;;;28.80
71649;BMP180;59492;45.638;11.714;2022-07-23T04:03:46;100972.80;;;28.80
71649;BMP180;59492;45.638;11.714;2022-07-23T04:06:15;100974.00;;;28.80
71649;BMP180;59492;45.638;11.714;2022-07-23T04:08:45;100975.80;;;28.80
71649;BMP180;59492;45.638;11.714;2022-07-23T04:11:15;100977.80;;;28.80
71649;BMP180;59492;45.638;11.714;2022-07-23T04:13:41;100986.40;;;28.80
71649;BMP180;59492;45.638;11.714;2022-07-23T04:16:07;100989.60;;;28.80
71649;BMP180;59492;45.638;11.714;2022-07-23T04:18:36;100998.80;;;28.78
71649;BMP180;59492;45.638;11.714;2022-07-23T04:21:02;101001.60;;;28.80
71649;BMP180;59492;45.638;11.714;2022-07-23T04:23:29;101005.00;;;28.78
71649;BMP180;59492;45.638;11.714;2022-07-23T04:25:57;101002.20;;;28.78
71649;BMP180;59492;45.638;11.714;2022-07-23T04:28:22;100998.80;;;28.78
71649;BMP180;59492;45.638;11.714;2022-07-23T04:30:51;101000.20;;;28.76
71649;BMP180;59492;45.638;11.714;2022-07-23T04:33:23;101002.80;;;28.72
71649;BMP180;59492;45.638;11.714;2022-07-23T04:35:52;101008.40;;;28.74
71649;BMP180;59492;45.638;11.714;2022-07-23T04:38:21;101006.40;;;28.74
71649;BMP180;59492;45.638;11.714;2022-07-23T04:40:49;101010.20;;;28.70
71649;BMP180;59492;45.638;11.714;2022-07-23T04:43:17;101009.20;;;28.70
71649;BMP180;59492;45.638;11.714;2022-07-23T04:45:44;101001.60;;;28.70
71649;BMP180;59492;45.638;11.714;2022-07-23T04:48:12;100995.60;;;28.72
71649;BMP180;59492;45.638;11.714;2022-07-23T04:50:39;100990.60;;;28.70
71649;BMP180;59492;45.638;11.714;2022-07-23T04:53:05;100987.60;;;28.70
71649;BMP180;59492;45.638;11.714;2022-07-23T04:55:30;100984.80;;;28.70
71649;BMP180;59492;45.638;11.714;2022-07-23T04:57:56;100987.00;;;28.70
71649;BMP180;59492;45.638;11.714;2022-07-23T05:00:22;100987.00;;;28.70
71649;BMP180;59492;45.638;11.714;2022-07-23T05:02:47;100989.20;;;28.70
71649;BMP180;59492;45.638;11.714;2022-07-23T05:05:13;100986.20;;;28.72
71649;BMP180;59492;45.638;11.714;2022-07-23T05:07:39;100978.80;;;28.70
71649;BMP180;59492;45.638;11.714;2022-07-23T05:10:04;100978.00;;;28.74
71649;BMP180;59492;45.638;11.714;2022-07-23T05:12:30;100970.00;;;28.76
71649;BMP180;59492;45.638;11.714;2022-07-23T05:14:56;100965.20;;;28.76
71649;BMP180;59492;45.638;11.714;2022-07-23T05:17:22;100962.80;;;28.76
71649;BMP180;59492;45.638;11.714;2022-07-23T05:19:49;100964.20;;;28.76
71649;BMP180;59492;45.638;11.714;2022-07-23T05:22:15;100964.60;;;28.78
71649;BMP180;59492;45.638;11.714;2022-07-23T05:24:42;100968.20;;;28.80
71649;BMP180;59492;45.638;11.714;2022-07-23T05:27:09;100970.80;;;28.76
71649;BMP180;59492;45.638;11.714;2022-07-23T05:29:35;100969.80;;;28.78
71649;BMP180;59492;45.638;11.714;2022-07-23T05:32:01;100967.20;;;28.78
71649;BMP180;59492;45.638;11.714;2022-07-23T05:34:27;100973.80;;;28.80
71649;BMP180;59492;45.638;11.714;2022-07-23T05:36:52;100977.00;;;28.80
71649;BMP180;59492;45.638;11.714;2022-07-23T05:39:18;100982.20;;;28.80
71649;BMP180;59492;45.638;11.714;2022-07-23T05:41:44;100980.60;;;28.80
71649;BMP180;59492;45.638;11.714;2022-07-23T05:44:09;100981.80;;;28.80
71649;BMP180;59492;45.638;11.714;2022-07-23T05:46:35;100979.80;;;28.80
71649;BMP180;59492;45.638;11.714;2022-07-23T05:49:00;100982.20;;;28.80
71649;BMP180;59492;45.638;11.714;2022-07-23T05:51:26;100983.80;;;28.80
71649;BMP180;59492;45.638;11.714;2022-07-23T05:53:52;100987.40;;;28.80
71649;BMP180;59492;45.638;11.714;2022-07-23T05:56:19;100988.00;;;28.80
71649;BMP180;59492;45.638;11.714;2022-07-23T05:58:45;100985.00;;;28.84
71649;BMP180;59492;45.638;11.714;2022-07-23T06:01:10;100987.40;;;28.88
71649;BMP180;59492;45.638;11.714;2022-07-23T06:03:39;100991.40;;;28.88
71649;BMP180;59492;45.638;11.714;2022-07-23T06:06:06;100995.80;;;28.90
71649;BMP180;59492;45.638;11.714;2022-07-23T06:08:31;100998.40;;;28.90
71649;BMP180;59492;45.638;11.714;2022-07-23T06:10:57;100998.80;;;28.90
71649;BMP180;59492;45.638;11.714;2022-07-23T06:13:23;100995.20;;;28.90
71649;BMP180;59492;45.638;11.714;2022-07-23T06:15:48;100998.00;;;28.90
71649;BMP180;59492;45.638;11.714;2022-07-23T06:18:14;100996.20;;;28.98
71649;BMP180;59492;45.638;11.714;2022-07-23T06:20:40;100999.60;;;29.00
71649;BMP180;59492;45.638;11.714;2022-07-23T06:23:06;101004.00;;;29.00
71649;BMP180;59492;45.638;11.714;2022-07-23T06:25:34;101004.40;;;29.00
71649;BMP180;59492;45.638;11.714;2022-07-23T06:27:59;101002.80;;;29.02
71649;BMP180;59492;45.638;11.714;2022-07-23T06:30:25;101004.40;;;29.10
71649;BMP180;59492;45.638;11.714;2022-07-23T06:32:51;101006.80;;;29.10
71649;BMP180;59492;45.638;11.714;2022-07-23T06:35:17;101005.00;;;29.10
71649;BMP180;59492;45.638;11.714;2022-07-23T06:37:43;101007.00;;;29.10
71649;BMP180;59492;45.638;11.714;2022-07-23T06:40:09;101012.40;;;29.12
71649;BMP180;59492;45.638;11.714;2022-07-23T06:42:35;101014.60;;;29.20
71649;BMP180;59492;45.638;11.714;2022-07-23T06:45:06;101019.60;;;29.20
71649;BMP180;59492;45.638;11.714;2022-07-23T06:47:32;101022.60;;;29.20
71649;BMP180;59492;45.638;11.714;2022-07-23T06:49:58;101027.40;;;29.20
71649;BMP180;59492;45.638;11.714;2022-07-23T06:52:23;101024.80;;;29.20
71649;BMP180;59492;45.638;11.714;2022-07-23T06:54:49;101022.60;;;29.20
71649;BMP180;59492;45.638;11.714;2022-07-23T06:57:15;101016.40;;;29.22
71649;BMP180;59492;45.638;11.714;2022-07-23T06:59:40;101018.20;;;29.28
71649;BMP180;59492;45.638;11.714;2022-07-23T07:02:07;101017.60;;;29.30
71649;BMP180;59492;45.638;11.714;2022-07-23T07:04:33;101014.60;;;29.30
71649;BMP180;59492;45.638;11.714;2022-07-23T07:06:58;101013.00;;;29.30
71649;BMP180;59492;45.638;11.714;2022-07-23T07:09:24;101009.80;;;29.30
71649;BMP180;59492;45.638;11.714;2022-07-23T07:11:50;101010.20;;;29.30
71649;BMP180;59492;45.638;11.714;2022-07-23T07:14:15;101009.80;;;29.30
71649;BMP180;59492;45.638;11.714;2022-07-23T07:16:41;101007.40;;;29.34
71649;BMP180;59492;45.638;11.714;2022-07-23T07:19:06;101001.40;;;29.40
71649;BMP180;59492;45.638;11.714;2022-07-23T07:21:32;101001.00;;;29.40
71649;BMP180;59492;45.638;11.714;2022-07-23T07:23:58;100996.00;;;29.40
71649;BMP180;59492;45.638;11.714;2022-07-23T07:26:23;100995.60;;;29.40
71649;BMP180;59492;45.638;11.714;2022-07-23T07:28:49;100997.00;;;29.40
71649;BMP180;59492;45.638;11.714;2022-07-23T07:31:14;100993.40;;;29.40
71649;BMP180;59492;45.638;11.714;2022-07-23T07:33:40;100988.40;;;29.40
71649;BMP180;59492;45.638;11.714;2022-07-23T07:36:06;100989.20;;;29.44
71649;BMP180;59492;45.638;11.714;2022-07-23T07:38:31;100990.60;;;29.46
71649;BMP180;59492;45.638;11.714;2022-07-23T07:40:57;100992.80;;;29.50
71649;BMP180;59492;45.638;11.714;2022-07-23T07:43:23;100996.20;;;29.50
71649;BMP180;59492;45.638;11.714;2022-07-23T07:45:48;101003.40;;;29.50
71649;BMP180;59492;45.638;11.714;2022-07-23T07:48:14;100998.40;;;29.50
71649;BMP180;59492;45.638;11.714;2022-07-23T07:50:40;100996.60;;;29.50
71649;BMP180;59492;45.638;11.714;2022-07-23T07:53:05;100998.00;;;29.50
71649;BMP180;59492;45.638;11.714;2022-07-23T07:55:31;101000.00;;;29.54
71649;BMP180;59492;45.638;11.714;2022-07-23T07:57:58;101001.80;;;29.56
71649;BMP180;59492;45.638;11.714;2022-07-23T08:00:24;101008.40;;;29.60
71649;BMP180;59492;45.638;11.714;2022-07-23T08:02:51;101003.40;;;29.60
71649;BMP180;59492;45.638;11.714;2022-07-23T08:05:22;101007.00;;;29.60
71649;BMP180;59492;45.638;11.714;2022-07-23T08:07:48;101008.20;;;29.60
71649;BMP180;59492;45.638;11.714;2022-07-23T08:10:14;101005.60;;;29.60
71649;BMP180;59492;45.638;11.714;2022-07-23T08:12:52;101008.00;;;29.60
71649;BMP180;59492;45.638;11.714;2022-07-23T08:15:29;101012.00;;;29.60
71649;BMP180;59492;45.638;11.714;2022-07-23T08:17:56;101011.60;;;29.60
71649;BMP180;59492;45.638;11.714;2022-07-23T08:20:24;101015.00;;;29.60
71649;BMP180;59492;45.638;11.714;2022-07-23T08:23:04;101016.80;;;29.60
71649;BMP180;59492;45.638;11.714;2022-07-23T08:25:39;101018.20;;;29.60
71649;BMP180;59492;45.638;11.714;2022-07-23T08:28:10;101017.00;;;29.60
71649;BMP180;59492;45.638;11.714;2022-07-23T08:30:37;101016.80;;;29.60
71649;BMP180;59492;45.638;11.714;2022-07-23T08:33:05;101011.60;;;29.60
71649;BMP180;59492;45.638;11.714;2022-07-23T08:35:38;101007.20;;;29.60
71649;BMP180;59492;45.638;11.714;2022-07-23T08:38:06;101007.80;;;29.60
71649;BMP180;59492;45.638;11.714;2022-07-23T08:40:36;101007.80;;;29.60
71649;BMP180;59492;45.638;11.714;2022-07-23T08:43:07;101009.40;;;29.60
71649;BMP180;59492;45.638;11.714;2022-07-23T08:45:43;101010.80;;;29.60
71649;BMP180;59492;45.638;11.714;2022-07-23T08:48:17;101009.00;;;29.60
71649;BMP180;59492;45.638;11.714;2022-07-23T08:50:48;101007.80;;;29.60
71649;BMP180;59492;45.638;11.714;2022-07-23T08:53:15;101008.40;;;29.60
71649;BMP180;59492;45.638;11.714;2022-07-23T08:55:47;101011.60;;;29.62
71649;BMP180;59492;45.638;11.714;2022-07-23T08:58:17;101011.20;;;29.62
71649;BMP180;59492;45.638;11.714;2022-07-23T09:00:49;101010.00;;;29.60
71649;BMP180;59492;45.638;11.714;2022-07-23T09:03:31;101010.80;;;29.60
71649;BMP180;59492;45.638;11.714;2022-07-23T09:06:01;101009.00;;;29.60
71649;BMP180;59492;45.638;11.714;2022-07-23T09:08:40;101006.20;;;29.60
71649;BMP180;59492;45.638;11.714;2022-07-23T09:11:11;101008.80;;;29.62
71649;BMP180;59492;45.638;11.714;2022-07-23T09:13:52;101009.40;;;29.62
71649;BMP180;59492;45.638;11.714;2022-07-23T09:16:24;101008.40;;;29.68
71649;BMP180;59492;45.638;11.714;2022-07-23T09:18:58;101005.40;;;29.66
71649;BMP180;59492;45.638;11.714;2022-07-23T09:21:30;101002.80;;;29.70
71649;BMP180;59492;45.638;11.714;2022-07-23T09:24:01;101001.00;;;29.70
71649;BMP180;59492;45.638;11.714;2022-07-23T09:29:06;101003.60;;;29.70
71649;BMP180;59492;45.638;11.714;2022-07-23T09:31:43;100999.80;;;29.70
71649;BMP180;59492;45.638;11.714;2022-07-23T09:34:16;101003.20;;;29.68
71649;BMP180;59492;45.638;11.714;2022-07-23T09:36:42;101002.40;;;29.70
71649;BMP180;59492;45.638;11.714;2022-07-23T09:39:09;101005.20;;;29.70
71649;BMP180;59492;45.638;11.714;2022-07-23T09:41:45;101005.00;;;29.70
71649;BMP180;59492;45.638;11.714;2022-07-23T09:44:16;100999.80;;;29.70
71649;BMP180;59492;45.638;11.714;2022-07-23T09:46:45;100998.60;;;29.68
71649;BMP180;59492;45.638;11.714;2022-07-23T09:49:21;100992.20;;;29.70
71649;BMP180;59492;45.638;11.714;2022-07-23T09:54:37;100989.20;;;29.70
71649;BMP180;59492;45.638;11.714;2022-07-23T09:57:08;100997.20;;;29.66
71649;BMP180;59492;45.638;11.714;2022-07-23T09:59:39;100994.60;;;29.70
71649;BMP180;59492;45.638;11.714;2022-07-23T10:02:06;100988.40;;;29.70
71649;BMP180;59492;45.638;11.714;2022-07-23T10:04:33;100986.60;;;29.70
71649;BMP180;59492;45.638;11.714;2022-07-23T10:07:01;100984.00;;;29.70
71649;BMP180;59492;45.638;11.714;2022-07-23T10:09:33;100982.00;;;29.70
71649;BMP180;59492;45.638;11.714;2022-07-23T10:12:03;100979.00;;;29.70
71649;BMP180;59492;45.638;11.714;2022-07-23T10:14:40;100975.80;;;29.70
71649;BMP180;59492;45.638;11.714;2022-07-23T10:17:07;100974.40;;;29.70
71649;BMP180;59492;45.638;11.714;2022-07-23T10:19:33;100973.80;;;29.70
71649;BMP180;59492;45.638;11.714;2022-07-23T10:22:06;100972.60;;;29.70
71649;BMP180;59492;45.638;11.714;2022-07-23T10:29:38;100965.20;;;29.64
71649;BMP180;59492;45.638;11.714;2022-07-23T10:37:47;100960.80;;;29.60
71649;BMP180;59492;45.638;11.714;2022-07-23T10:40:19;100957.60;;;29.60
71649;BMP180;59492;45.638;11.714;2022-07-23T10:42:48;100954.80;;;29.60
71649;BMP180;59492;45.638;11.714;2022-07-23T10:45:36;100951.00;;;29.60
71649;BMP180;59492;45.638;11.714;2022-07-23T10:48:17;100953.40;;;29.58
71649;BMP180;59492;45.638;11.714;2022-07-23T10:50:44;100946.80;;;29.60
71649;BMP180;59492;45.638;11.714;2022-07-23T10:53:13;100944.60;;;29.60
71649;BMP180;59492;45.638;11.714;2022-07-23T10:55:42;100941.40;;;29.58
71649;BMP180;59492;45.638;11.714;2022-07-23T10:58:09;100941.60;;;29.56
71649;BMP180;59492;45.638;11.714;2022-07-23T11:00:37;100939.00;;;29.54
71649;BMP180;59492;45.638;11.714;2022-07-23T11:05:54;100931.40;;;29.50
71649;BMP180;59492;45.638;11.714;2022-07-23T11:08:20;100930.40;;;29.50
71649;BMP180;59492;45.638;11.714;2022-07-23T11:10:52;100930.60;;;29.50
71649;BMP180;59492;45.638;11.714;2022-07-23T11:32:01;100902.20;;;29.40
71649;BMP180;59492;45.638;11.714;2022-07-23T11:34:30;100899.60;;;29.40
71649;BMP180;59492;45.638;11.714;2022-07-23T11:36:56;100897.60;;;29.40
71649;BMP180;59492;45.638;11.714;2022-07-23T11:39:25;100895.40;;;29.40
71649;BMP180;59492;45.638;11.714;2022-07-23T11:41:55;100896.20;;;29.40
71649;BMP180;59492;45.638;11.714;2022-07-23T11:44:29;100898.80;;;29.40
71649;BMP180;59492;45.638;11.714;2022-07-23T11:46:57;100898.40;;;29.40
71649;BMP180;59492;45.638;11.714;2022-07-23T11:49:23;100900.60;;;29.40
71649;BMP180;59492;45.638;11.714;2022-07-23T11:52:22;100896.80;;;29.40
71649;BMP180;59492;45.638;11.714;2022-07-23T11:55:00;100893.20;;;29.30
71649;BMP180;59492;45.638;11.714;2022-07-23T11:57:28;100892.80;;;29.34
71649;BMP180;59492;45.638;11.714;2022-07-23T12:02:30;100889.60;;;29.32
71649;BMP180;59492;45.638;11.714;2022-07-23T12:04:56;100887.40;;;29.32
71649;BMP180;59492;45.638;11.714;2022-07-23T12:07:34;100884.20;;;29.32
71649;BMP180;59492;45.638;11.714;2022-07-23T12:10:04;100879.00;;;29.30
71649;BMP180;59492;45.638;11.714;2022-07-23T12:12:39;100873.40;;;29.30
71649;BMP180;59492;45.638;11.714;2022-07-23T12:15:06;100869.00;;;29.30
71649;BMP180;59492;45.638;11.714;2022-07-23T12:17:35;100872.00;;;29.30
71649;BMP180;59492;45.638;11.714;2022-07-23T12:20:04;100864.80;;;29.30
71649;BMP180;59492;45.638;11.714;2022-07-23T12:22:40;100860.20;;;29.30
71649;BMP180;59492;45.638;11.714;2022-07-23T12:25:07;100857.80;;;29.28
71649;BMP180;59492;45.638;11.714;2022-07-23T12:27:34;100853.80;;;29.28
71649;BMP180;59492;45.638;11.714;2022-07-23T12:30:17;100851.20;;;29.26
71649;BMP180;59492;45.638;11.714;2022-07-23T12:32:44;100848.00;;;29.20
71649;BMP180;59492;45.638;11.714;2022-07-23T12:35:10;100849.40;;;29.24
71649;BMP180;59492;45.638;11.714;2022-07-23T12:37:38;100850.60;;;29.22
71649;BMP180;59492;45.638;11.714;2022-07-23T12:40:23;100843.00;;;29.22
71649;BMP180;59492;45.638;11.714;2022-07-23T12:42:52;100849.00;;;29.20
71649;BMP180;59492;45.638;11.714;2022-07-23T12:45:18;100848.60;;;29.20
71649;BMP180;59492;45.638;11.714;2022-07-23T12:50:43;100844.40;;;29.20
71649;BMP180;59492;45.638;11.714;2022-07-23T12:53:14;100837.60;;;29.20
71649;BMP180;59492;45.638;11.714;2022-07-23T12:55:41;100836.40;;;29.20
71649;BMP180;59492;45.638;11.714;2022-07-23T12:58:11;100836.80;;;29.20
71649;BMP180;59492;45.638;11.714;2022-07-23T13:03:44;100831.00;;;29.14
71649;BMP180;59492;45.638;11.714;2022-07-23T13:06:19;100829.20;;;29.10
71649;BMP180;59492;45.638;11.714;2022-07-23T13:08:45;100826.20;;;29.10
71649;BMP180;59492;45.638;11.714;2022-07-23T13:11:10;100825.60;;;29.14
71649;BMP180;59492;45.638;11.714;2022-07-23T13:13:36;100824.80;;;29.12
71649;BMP180;59492;45.638;11.714;2022-07-23T13:16:02;100816.40;;;29.14
71649;BMP180;59492;45.638;11.714;2022-07-23T13:18:28;100818.20;;;29.10
71649;BMP180;59492;45.638;11.714;2022-07-23T13:20:54;100818.60;;;29.10
71649;BMP180;59492;45.638;11.714;2022-07-23T13:23:20;100814.60;;;29.10
71649;BMP180;59492;45.638;11.714;2022-07-23T13:25:47;100817.80;;;29.10
71649;BMP180;59492;45.638;11.714;2022-07-23T13:28:14;100815.00;;;29.10
71649;BMP180;59492;45.638;11.714;2022-07-23T13:30:41;100812.40;;;29.10
71649;BMP180;59492;45.638;11.714;2022-07-23T13:33:07;100809.80;;;29.10
71649;BMP180;59492;45.638;11.714;2022-07-23T13:35:34;100805.20;;;29.18
71649;BMP180;59492;45.638;11.714;2022-07-23T13:38:01;100804.00;;;29.20
71649;BMP180;59492;45.638;11.714;2022-07-23T13:40:27;100803.80;;;29.20
71649;BMP180;59492;45.638;11.714;2022-07-23T13:42:53;100803.40;;;29.20
71649;BMP180;59492;45.638;11.714;2022-07-23T13:45:19;100806.40;;;29.30
71649;BMP180;59492;45.638;11.714;2022-07-23T13:47:44;100805.40;;;29.30
71649;BMP180;59492;45.638;11.714;2022-07-23T13:50:10;100803.80;;;29.30
71649;BMP180;59492;45.638;11.714;2022-07-23T13:52:36;100802.40;;;29.40
71649;BMP180;59492;45.638;11.714;2022-07-23T13:55:04;100797.60;;;29.40
71649;BMP180;59492;45.638;11.714;2022-07-23T13:57:31;100793.60;;;29.44
71649;BMP180;59492;45.638;11.714;2022-07-23T13:59:57;100794.00;;;29.50
71649;BMP180;59492;45.638;11.714;2022-07-23T14:02:23;100787.80;;;29.50
71649;BMP180;59492;45.638;11.714;2022-07-23T14:04:49;100789.60;;;29.60
71649;BMP180;59492;45.638;11.714;2022-07-23T14:07:16;100790.60;;;29.60
71649;BMP180;59492;45.638;11.714;2022-07-23T14:09:41;100787.20;;;29.70
71649;BMP180;59492;45.638;11.714;2022-07-23T14:12:07;100787.20;;;29.70
71649;BMP180;59492;45.638;11.714;2022-07-23T14:14:33;100776.20;;;29.74
71649;BMP180;59492;45.638;11.714;2022-07-23T14:16:59;100775.80;;;29.80
71649;BMP180;59492;45.638;11.714;2022-07-23T14:19:25;100771.40;;;29.80
71649;BMP180;59492;45.638;11.714;2022-07-23T14:21:51;100768.80;;;29.90
71649;BMP180;59492;45.638;11.714;2022-07-23T14:24:17;100766.20;;;29.90
71649;BMP180;59492;45.638;11.714;2022-07-23T14:26:43;100766.80;;;30.00
71649;BMP180;59492;45.638;11.714;2022-07-23T14:29:09;100765.80;;;30.00
71649;BMP180;59492;45.638;11.714;2022-07-23T14:31:35;100768.20;;;30.00